Terminal Aerodrome Forecast
Issued by NWS

Home | Current Version | Previous Version | Text Only | Print | Product List | Glossary On
Versions: 1 2 3 4 5 6 7 8 9 10 11 12 13 14 15 16 17 18 19 20 21 22 23
000
FTPA31 PHFO 231700 RRA
TAFLIH
TAF
PHLI 231741Z 2318/2418 VRB04KT P6SM FEW025 SCT050
     FM232000 17007KT P6SM SCT025 BKN050
     FM240300 21006KT P6SM FEW025 SCT050
     FM241000 25007KT P6SM FEW025 SCT050
     FM241500 33008KT P6SM FEW025 SCT050=

USA.gov is the U.S. government's official web portal to all federal, state and local government web resources and services.